Spirit Of Montoir — IBLU — position and weather

sailwx.info

Track history (hours):
 
Tides and Currents Weather Stations Pressure Air Temp Water Temp Dewpoint Dewpoint Depression Visibility Wind Speed Wind Dir Waves Ship Positions

Spirit Of Montoir

Last reported at 2018-Jul-17 11:28 UTC. Time now 2018-Jul-17 19:10 UTC.
Position N 37°14' E 004°50'.

Length 180 m; draft 6.6 m.

Type: Cargo ship. MMSI: 247371500.

Date/timePositionNaut miles runAvg speedWind from/ knotsBaromVisibWave heightAir tempDewpointWater temp
2018-Jul-17 11:28N 37°14' E 004°50'511.3
2018-Jul-17 11:00N 37°13' E 004°43'911.4
2018-Jul-17 10:14N 37°12' E 004°32'511.2
2018-Jul-17 09:49N 37°12' E 004°26'1511.1
2018-Jul-17 08:29N 37°10' E 004°08'510.8
2018-Jul-17 08:00N 37°09' E 004°02'710.9
2018-Jul-17 07:24N 37°09' E 003°53'610.9
2018-Jul-17 06:53N 37°08' E 003°46'410.7
2018-Jul-17 06:30N 37°08' E 003°41'610.7
2018-Jul-17 05:57N 37°07' E 003°34'510.6
2018-Jul-17 05:30N 37°06' E 003°28'510.7
2018-Jul-17 05:00N 37°06' E 003°21'510.8
2018-Jul-17 04:30N 37°05' E 003°15'611.1
2018-Jul-17 03:59N 37°04' E 003°07'511.3
2018-Jul-17 03:30N 37°04' E 003°01'611.4
2018-Jul-17 03:00N 37°03' E 002°54'611.4
2018-Jul-17 02:30N 37°02' E 002°46'611.3
2018-Jul-17 02:00N 37°01' E 002°39'611.3
2018-Jul-17 01:28N 37°00' E 002°32'511.5
2018-Jul-17 01:00N 36°60' E 002°25'611.8
2018-Jul-17 00:29N 36°59' E 002°18'1212.2
2018-Jul-16 23:30N 36°57' E 002°03'612.3
2018-Jul-16 22:59N 36°55' E 001°55'612.1
2018-Jul-16 22:30N 36°54' E 001°48'611.9
2018-Jul-16 22:00N 36°53' E 001°41'611.8
2018-Jul-16 21:30N 36°52' E 001°34'711.7
2018-Jul-16 20:54N 36°51' E 001°25'811.8
2018-Jul-16 20:13N 36°50' E 001°15'29612.9
2018-Jul-15 21:20N 36°03' W 004°48'1915.0
2018-Jul-15 20:04N 35°60' W 005°11'115.6
2018-Jul-15 20:00N 35°60' W 005°12'917.2
2018-Jul-15 19:30N 35°58' W 005°23'8 3.2
2018-Jul-15 17:07N 35°54' W 005°30'0 0.0
2018-Jul-15 16:55N 35°54' W 005°30'0 0.0
2018-Jul-15 16:13N 35°54' W 005°30'0 0.0
2018-Jul-15 15:55N 35°54' W 005°30'0 0.0
2018-Jul-15 15:25N 35°54' W 005°30'0 0.0
2018-Jul-15 15:00N 35°54' W 005°30'10 6.4
2018-Jul-15 13:31N 35°54' W 005°42'114.5
2018-Jul-15 13:27N 35°54' W 005°43'916.2
2018-Jul-15 12:53N 35°54' W 005°55'21813.6
2018-Jul-14 20:48N 37°44' W 009°49'1815.3
2018-Jul-14 19:40N 38°01' W 009°54'1614.9
2018-Jul-14 18:36N 38°17' W 009°59'115.0
2018-Jul-14 18:30N 38°18' W 009°59'815.0
2018-Jul-14 18:00N 38°25' W 010°02'815.4
2018-Jul-14 17:29N 38°33' W 010°04'715.3
2018-Jul-14 17:00N 38°40' W 010°06'714.8
2018-Jul-14 16:30N 38°47' W 010°07'714.7
2018-Jul-14 16:00N 38°55' W 010°07'714.7
2018-Jul-14 15:30N 39°02' W 010°07'714.4
2018-Jul-14 15:00N 39°09' W 010°07'714.6
2018-Jul-14 14:30N 39°17' W 010°07'1715.0
2018-Jul-14 13:23N 39°34' W 010°06'41413.8
2018-Jul-13 07:22N 45°40' W 005°43'8713.2
2018-Jul-13 00:46N 46°31' W 004°01'913.6
2018-Jul-13 00:07N 46°35' W 003°49'113.3
2018-Jul-13 00:00N 46°36' W 003°47'1113.3
2018-Jul-12 23:12N 46°41' W 003°34'313.5
2018-Jul-12 23:00N 46°42' W 003°30'713.7
2018-Jul-12 22:30N 46°45' W 003°21'713.5
2018-Jul-12 22:00N 46°48' W 003°13'713.7
2018-Jul-12 21:30N 46°52' W 003°04'713.9
2018-Jul-12 21:01N 46°55' W 002°55'713.8
2018-Jul-12 20:30N 46°58' W 002°46'815.6
2018-Jul-12 20:00N 47°02' W 002°36'816.5
2018-Jul-12 19:30N 47°06' W 002°25'612.2
2018-Jul-12 19:00N 47°10' W 002°19'815.1
2018-Jul-12 18:30N 47°16' W 002°12'2 3.8
2018-Jul-12 17:59N 47°17' W 002°10'0 0.0
2018-Jul-12 17:26N 47°17' W 002°10'0 0.0
2018-Jul-12 16:59N 47°17' W 002°10'0 0.0
2018-Jul-12 16:23N 47°17' W 002°10'0 0.0
2018-Jul-12 15:59N 47°17' W 002°10'0 0.0
2018-Jul-12 15:26N 47°17' W 002°10'0 0.0
2018-Jul-12 14:59N 47°17' W 002°10'0 0.0
2018-Jul-12 14:29N 47°17' W 002°10'0 0.0
2018-Jul-12 13:59N 47°17' W 002°10'0 0.0
2018-Jul-12 13:29N 47°17' W 002°10'0 0.0
2018-Jul-12 12:59N 47°17' W 002°10'0 0.0
2018-Jul-12 12:29N 47°17' W 002°10'0 0.0
2018-Jul-12 11:59N 47°17' W 002°10'0 0.0
2018-Jul-12 11:29N 47°17' W 002°10'0 0.0
2018-Jul-12 10:59N 47°17' W 002°10'0 0.0
2018-Jul-12 10:23N 47°17' W 002°10'0 0.0
2018-Jul-12 09:59N 47°17' W 002°10'0 0.0
2018-Jul-12 09:11N 47°17' W 002°10'0 0.0
2018-Jul-12 08:53N 47°17' W 002°10'0 0.0
2018-Jul-12 07:47N 47°17' W 002°10'0 0.0
2018-Jul-12 06:50N 47°17' W 002°10'0 0.0
2018-Jul-12 06:23N 47°17' W 002°10'0 0.0
2018-Jul-12 05:59N 47°17' W 002°10'0 0.0
2018-Jul-12 05:29N 47°17' W 002°10'0 0.0
2018-Jul-12 05:00N 47°17' W 002°10'0 0.0
2018-Jul-12 04:30N 47°17' W 002°10'0 0.0
2018-Jul-12 04:00N 47°17' W 002°10'0 0.1
2018-Jul-12 03:30N 47°17' W 002°10'3 6.5
2018-Jul-12 03:00N 47°15' W 002°13'815.3
2018-Jul-12 02:30N 47°09' W 002°20'4 7.5
2018-Jul-12 01:57N 47°06' W 002°24'711.4
2018-Jul-12 01:19N 47°02' W 002°33'511.9
2018-Jul-12 00:54N 46°59' W 002°39'612.4
2018-Jul-12 00:26N 46°56' W 002°46'6013.2
2018-Jul-11 19:55N 46°21' W 003°56'712.8
2018-Jul-11 19:24N 46°17' W 004°04'4313.2
2018-Jul-11 16:06N 45°51' W 004°55'113.4
2018-Jul-11 16:00N 45°51' W 004°56'712.9
2018-Jul-11 15:27N 45°46' W 005°04'612.9
2018-Jul-11 14:59N 45°43' W 005°11'1013.1
2018-Jul-11 14:11N 45°37' W 005°23'313.0
2018-Jul-11 14:00N 45°35' W 005°26'1612.9
2018-Jul-11 12:43N 45°25' W 005°45'34813.2
2018-Jul-10 10:24N 40°27' W 009°49'614.5
2018-Jul-10 10:00N 40°21' W 009°49'814.5
2018-Jul-10 09:27N 40°13' W 009°49'714.9
2018-Jul-10 08:58N 40°06' W 009°48'714.8
2018-Jul-10 08:30N 39°59' W 009°48'814.4
2018-Jul-10 07:58N 39°51' W 009°48'1714.8
2018-Jul-10 06:49N 39°35' W 009°49'514.7
2018-Jul-10 06:30N 39°30' W 009°49'814.9
2018-Jul-10 05:57N 39°22' W 009°49'714.8
2018-Jul-10 05:30N 39°15' W 009°49'714.9
2018-Jul-10 05:01N 39°08' W 009°49'715.0
2018-Jul-10 04:31N 39°00' W 009°49'714.6
2018-Jul-10 04:00N 38°53' W 009°49'714.4
2018-Jul-10 03:30N 38°46' W 009°50'714.5
2018-Jul-10 03:00N 38°39' W 009°49'815.2
2018-Jul-10 02:30N 38°31' W 009°47'815.0
2018-Jul-10 02:00N 38°24' W 009°45'714.9
2018-Jul-10 01:30N 38°17' W 009°43'714.8
2018-Jul-10 01:00N 38°09' W 009°40'714.7
2018-Jul-10 00:30N 38°02' W 009°38'715.0
2018-Jul-10 00:00N 37°55' W 009°36'815.8
2018-Jul-09 23:30N 37°47' W 009°34'715.0
2018-Jul-09 23:00N 37°40' W 009°32'714.8
2018-Jul-09 22:30N 37°33' W 009°30'714.7
2018-Jul-09 22:00N 37°26' W 009°28'714.1
2018-Jul-09 21:30N 37°19' W 009°26'713.4
2018-Jul-09 21:00N 37°12' W 009°24'713.3
2018-Jul-09 20:30N 37°06' W 009°22'713.4
2018-Jul-09 20:00N 36°59' W 009°20'712.6
2018-Jul-09 19:28N 36°53' W 009°17'612.9
2018-Jul-09 18:58N 36°48' W 009°12'612.9
2018-Jul-09 18:31N 36°45' W 009°06'713.2
2018-Jul-09 18:01N 36°43' W 008°58'713.0
2018-Jul-09 17:30N 36°40' W 008°50'612.8
2018-Jul-09 17:00N 36°38' W 008°43'613.0
2018-Jul-09 16:31N 36°36' W 008°35'713.3
2018-Jul-09 16:00N 36°34' W 008°27'713.2
2018-Jul-09 15:30N 36°31' W 008°19'712.5
2018-Jul-09 14:57N 36°29' W 008°11'12412.7
2018-Jul-09 05:07N 35°58' W 005°42'212.8
2018-Jul-09 04:58N 35°58' W 005°40'612.6
2018-Jul-09 04:31N 35°59' W 005°33'611.5
2018-Jul-09 04:00N 35°60' W 005°26'5 9.6
2018-Jul-09 03:30N 36°01' W 005°20'611.5
2018-Jul-09 03:00N 36°03' W 005°13'27213.0
2018-Jul-08 06:00N 36°57' E 000°18'713.5
2018-Jul-08 05:30N 36°59' E 000°26'713.4
2018-Jul-08 04:59N 37°01' E 000°35'913.5
2018-Jul-08 04:21N 37°03' E 000°45'613.4
2018-Jul-08 03:56N 37°05' E 000°52'913.5
2018-Jul-08 03:15N 37°07' E 001°03'413.7
2018-Jul-08 02:58N 37°08' E 001°08'613.7
2018-Jul-08 02:30N 37°09' E 001°16'713.8
2018-Jul-08 02:00N 37°11' E 001°24'713.8
2018-Jul-08 01:30N 37°13' E 001°32'713.7
2018-Jul-08 01:00N 37°15' E 001°41'713.6
2018-Jul-08 00:30N 37°16' E 001°49'713.5
2018-Jul-08 00:00N 37°18' E 001°57'713.4
2018-Jul-07 23:30N 37°20' E 002°05'713.1
2018-Jul-07 23:00N 37°21' E 002°13'713.2
2018-Jul-07 22:30N 37°23' E 002°22'1313.3
2018-Jul-07 21:30N 37°27' E 002°38'713.5
2018-Jul-07 21:00N 37°28' E 002°46'713.5
2018-Jul-07 20:27N 37°30' E 002°55'613.5
2018-Jul-07 20:00N 37°32' E 003°02'913.8
2018-Jul-07 19:22N 37°34' E 003°13'514.0
2018-Jul-07 19:00N 37°35' E 003°19'714.2
2018-Jul-07 18:30N 37°37' E 003°28'714.2
2018-Jul-07 18:00N 37°39' E 003°37'714.0
2018-Jul-07 17:30N 37°41' E 003°45'713.8
2018-Jul-07 17:00N 37°42' E 003°53'713.7
2018-Jul-07 16:30N 37°44' E 004°02'1913.5
2018-Jul-07 15:04N 37°49' E 004°26'113.5
2018-Jul-07 14:59N 37°49' E 004°27'713.5
2018-Jul-07 14:27N 37°51' E 004°36'613.4
2018-Jul-07 14:00N 37°53' E 004°43'713.3
2018-Jul-07 13:30N 37°54' E 004°51'913.3
2018-Jul-07 12:51N 37°56' E 005°02'413.1
2018-Jul-07 12:30N 37°58' E 005°07'  
Track history (hours):
 
Tides and Currents Weather Stations Pressure Air Temp Water Temp Dewpoint Dewpoint Depression Visibility Wind Speed Wind Dir Waves Ship Positions

Spirit Of Montoir

Last reported at 2018-Jul-17 11:28 UTC. Time now 2018-Jul-17 19:10 UTC.
Position N 37°14' E 004°50'.

Length 180 m; draft 6.6 m.

Type: Cargo ship. MMSI: 247371500.

Date/timePositionNaut miles runAvg speedWind from/ knotsBaromVisibWave heightAir tempDewpointWater temp
2018-Jul-17 11:28N 37°14' E 004°50'511.3
2018-Jul-17 11:00N 37°13' E 004°43'911.4
2018-Jul-17 10:14N 37°12' E 004°32'511.2
2018-Jul-17 09:49N 37°12' E 004°26'1511.1
2018-Jul-17 08:29N 37°10' E 004°08'510.8
2018-Jul-17 08:00N 37°09' E 004°02'710.9
2018-Jul-17 07:24N 37°09' E 003°53'610.9
2018-Jul-17 06:53N 37°08' E 003°46'410.7
2018-Jul-17 06:30N 37°08' E 003°41'610.7
2018-Jul-17 05:57N 37°07' E 003°34'510.6
2018-Jul-17 05:30N 37°06' E 003°28'510.7
2018-Jul-17 05:00N 37°06' E 003°21'510.8
2018-Jul-17 04:30N 37°05' E 003°15'611.1
2018-Jul-17 03:59N 37°04' E 003°07'511.3
2018-Jul-17 03:30N 37°04' E 003°01'611.4
2018-Jul-17 03:00N 37°03' E 002°54'611.4
2018-Jul-17 02:30N 37°02' E 002°46'611.3
2018-Jul-17 02:00N 37°01' E 002°39'611.3
2018-Jul-17 01:28N 37°00' E 002°32'511.5
2018-Jul-17 01:00N 36°60' E 002°25'611.8
2018-Jul-17 00:29N 36°59' E 002°18'1212.2
2018-Jul-16 23:30N 36°57' E 002°03'612.3
2018-Jul-16 22:59N 36°55' E 001°55'612.1
2018-Jul-16 22:30N 36°54' E 001°48'611.9
2018-Jul-16 22:00N 36°53' E 001°41'611.8
2018-Jul-16 21:30N 36°52' E 001°34'711.7
2018-Jul-16 20:54N 36°51' E 001°25'811.8
2018-Jul-16 20:13N 36°50' E 001°15'29612.9
2018-Jul-15 21:20N 36°03' W 004°48'1915.0
2018-Jul-15 20:04N 35°60' W 005°11'115.6
2018-Jul-15 20:00N 35°60' W 005°12'917.2
2018-Jul-15 19:30N 35°58' W 005°23'8 3.2
2018-Jul-15 17:07N 35°54' W 005°30'0 0.0
2018-Jul-15 16:55N 35°54' W 005°30'0 0.0
2018-Jul-15 16:13N 35°54' W 005°30'0 0.0
2018-Jul-15 15:55N 35°54' W 005°30'0 0.0
2018-Jul-15 15:25N 35°54' W 005°30'0 0.0
2018-Jul-15 15:00N 35°54' W 005°30'10 6.4
2018-Jul-15 13:31N 35°54' W 005°42'114.5
2018-Jul-15 13:27N 35°54' W 005°43'916.2
2018-Jul-15 12:53N 35°54' W 005°55'21813.6
2018-Jul-14 20:48N 37°44' W 009°49'1815.3
2018-Jul-14 19:40N 38°01' W 009°54'1614.9
2018-Jul-14 18:36N 38°17' W 009°59'115.0
2018-Jul-14 18:30N 38°18' W 009°59'815.0
2018-Jul-14 18:00N 38°25' W 010°02'815.4
2018-Jul-14 17:29N 38°33' W 010°04'715.3
2018-Jul-14 17:00N 38°40' W 010°06'714.8
2018-Jul-14 16:30N 38°47' W 010°07'714.7
2018-Jul-14 16:00N 38°55' W 010°07'714.7
2018-Jul-14 15:30N 39°02' W 010°07'714.4
2018-Jul-14 15:00N 39°09' W 010°07'714.6
2018-Jul-14 14:30N 39°17' W 010°07'1715.0
2018-Jul-14 13:23N 39°34' W 010°06'41413.8
2018-Jul-13 07:22N 45°40' W 005°43'8713.2
2018-Jul-13 00:46N 46°31' W 004°01'913.6
2018-Jul-13 00:07N 46°35' W 003°49'113.3
2018-Jul-13 00:00N 46°36' W 003°47'1113.3
2018-Jul-12 23:12N 46°41' W 003°34'313.5
2018-Jul-12 23:00N 46°42' W 003°30'713.7
2018-Jul-12 22:30N 46°45' W 003°21'713.5
2018-Jul-12 22:00N 46°48' W 003°13'713.7
2018-Jul-12 21:30N 46°52' W 003°04'713.9
2018-Jul-12 21:01N 46°55' W 002°55'713.8
2018-Jul-12 20:30N 46°58' W 002°46'815.6
2018-Jul-12 20:00N 47°02' W 002°36'816.5
2018-Jul-12 19:30N 47°06' W 002°25'612.2
2018-Jul-12 19:00N 47°10' W 002°19'815.1
2018-Jul-12 18:30N 47°16' W 002°12'2 3.8
2018-Jul-12 17:59N 47°17' W 002°10'0 0.0
2018-Jul-12 17:26N 47°17' W 002°10'0 0.0
2018-Jul-12 16:59N 47°17' W 002°10'0 0.0
2018-Jul-12 16:23N 47°17' W 002°10'0 0.0
2018-Jul-12 15:59N 47°17' W 002°10'0 0.0
2018-Jul-12 15:26N 47°17' W 002°10'0 0.0
2018-Jul-12 14:59N 47°17' W 002°10'0 0.0
2018-Jul-12 14:29N 47°17' W 002°10'0 0.0
2018-Jul-12 13:59N 47°17' W 002°10'0 0.0
2018-Jul-12 13:29N 47°17' W 002°10'0 0.0
2018-Jul-12 12:59N 47°17' W 002°10'0 0.0
2018-Jul-12 12:29N 47°17' W 002°10'0 0.0
2018-Jul-12 11:59N 47°17' W 002°10'0 0.0
2018-Jul-12 11:29N 47°17' W 002°10'0 0.0
2018-Jul-12 10:59N 47°17' W 002°10'0 0.0
2018-Jul-12 10:23N 47°17' W 002°10'0 0.0
2018-Jul-12 09:59N 47°17' W 002°10'0 0.0
2018-Jul-12 09:11N 47°17' W 002°10'0 0.0
2018-Jul-12 08:53N 47°17' W 002°10'0 0.0
2018-Jul-12 07:47N 47°17' W 002°10'0 0.0
2018-Jul-12 06:50N 47°17' W 002°10'0 0.0
2018-Jul-12 06:23N 47°17' W 002°10'0 0.0
2018-Jul-12 05:59N 47°17' W 002°10'0 0.0
2018-Jul-12 05:29N 47°17' W 002°10'0 0.0
2018-Jul-12 05:00N 47°17' W 002°10'0 0.0
2018-Jul-12 04:30N 47°17' W 002°10'0 0.0
2018-Jul-12 04:00N 47°17' W 002°10'0 0.1
2018-Jul-12 03:30N 47°17' W 002°10'3 6.5
2018-Jul-12 03:00N 47°15' W 002°13'815.3
2018-Jul-12 02:30N 47°09' W 002°20'4 7.5
2018-Jul-12 01:57N 47°06' W 002°24'711.4
2018-Jul-12 01:19N 47°02' W 002°33'511.9
2018-Jul-12 00:54N 46°59' W 002°39'612.4
2018-Jul-12 00:26N 46°56' W 002°46'6013.2
2018-Jul-11 19:55N 46°21' W 003°56'712.8
2018-Jul-11 19:24N 46°17' W 004°04'4313.2
2018-Jul-11 16:06N 45°51' W 004°55'113.4
2018-Jul-11 16:00N 45°51' W 004°56'712.9
2018-Jul-11 15:27N 45°46' W 005°04'612.9
2018-Jul-11 14:59N 45°43' W 005°11'1013.1
2018-Jul-11 14:11N 45°37' W 005°23'313.0
2018-Jul-11 14:00N 45°35' W 005°26'1612.9
2018-Jul-11 12:43N 45°25' W 005°45'34813.2
2018-Jul-10 10:24N 40°27' W 009°49'614.5
2018-Jul-10 10:00N 40°21' W 009°49'814.5
2018-Jul-10 09:27N 40°13' W 009°49'714.9
2018-Jul-10 08:58N 40°06' W 009°48'714.8
2018-Jul-10 08:30N 39°59' W 009°48'814.4
2018-Jul-10 07:58N 39°51' W 009°48'1714.8
2018-Jul-10 06:49N 39°35' W 009°49'514.7
2018-Jul-10 06:30N 39°30' W 009°49'814.9
2018-Jul-10 05:57N 39°22' W 009°49'714.8
2018-Jul-10 05:30N 39°15' W 009°49'714.9
2018-Jul-10 05:01N 39°08' W 009°49'715.0
2018-Jul-10 04:31N 39°00' W 009°49'714.6
2018-Jul-10 04:00N 38°53' W 009°49'714.4
2018-Jul-10 03:30N 38°46' W 009°50'714.5
2018-Jul-10 03:00N 38°39' W 009°49'815.2
2018-Jul-10 02:30N 38°31' W 009°47'815.0
2018-Jul-10 02:00N 38°24' W 009°45'714.9
2018-Jul-10 01:30N 38°17' W 009°43'714.8
2018-Jul-10 01:00N 38°09' W 009°40'714.7
2018-Jul-10 00:30N 38°02' W 009°38'715.0
2018-Jul-10 00:00N 37°55' W 009°36'815.8
2018-Jul-09 23:30N 37°47' W 009°34'715.0
2018-Jul-09 23:00N 37°40' W 009°32'714.8
2018-Jul-09 22:30N 37°33' W 009°30'714.7
2018-Jul-09 22:00N 37°26' W 009°28'714.1
2018-Jul-09 21:30N 37°19' W 009°26'713.4
2018-Jul-09 21:00N 37°12' W 009°24'713.3
2018-Jul-09 20:30N 37°06' W 009°22'713.4
2018-Jul-09 20:00N 36°59' W 009°20'712.6
2018-Jul-09 19:28N 36°53' W 009°17'612.9
2018-Jul-09 18:58N 36°48' W 009°12'612.9
2018-Jul-09 18:31N 36°45' W 009°06'713.2
2018-Jul-09 18:01N 36°43' W 008°58'713.0
2018-Jul-09 17:30N 36°40' W 008°50'612.8
2018-Jul-09 17:00N 36°38' W 008°43'613.0
2018-Jul-09 16:31N 36°36' W 008°35'713.3
2018-Jul-09 16:00N 36°34' W 008°27'713.2
2018-Jul-09 15:30N 36°31' W 008°19'712.5
2018-Jul-09 14:57N 36°29' W 008°11'12412.7
2018-Jul-09 05:07N 35°58' W 005°42'212.8
2018-Jul-09 04:58N 35°58' W 005°40'612.6
2018-Jul-09 04:31N 35°59' W 005°33'611.5
2018-Jul-09 04:00N 35°60' W 005°26'5 9.6
2018-Jul-09 03:30N 36°01' W 005°20'611.5
2018-Jul-09 03:00N 36°03' W 005°13'27213.0
2018-Jul-08 06:00N 36°57' E 000°18'713.5
2018-Jul-08 05:30N 36°59' E 000°26'713.4
2018-Jul-08 04:59N 37°01' E 000°35'913.5
2018-Jul-08 04:21N 37°03' E 000°45'613.4
2018-Jul-08 03:56N 37°05' E 000°52'913.5
2018-Jul-08 03:15N 37°07' E 001°03'413.7
2018-Jul-08 02:58N 37°08' E 001°08'613.7
2018-Jul-08 02:30N 37°09' E 001°16'713.8
2018-Jul-08 02:00N 37°11' E 001°24'713.8
2018-Jul-08 01:30N 37°13' E 001°32'713.7
2018-Jul-08 01:00N 37°15' E 001°41'713.6
2018-Jul-08 00:30N 37°16' E 001°49'713.5
2018-Jul-08 00:00N 37°18' E 001°57'713.4
2018-Jul-07 23:30N 37°20' E 002°05'713.1
2018-Jul-07 23:00N 37°21' E 002°13'713.2
2018-Jul-07 22:30N 37°23' E 002°22'1313.3
2018-Jul-07 21:30N 37°27' E 002°38'713.5
2018-Jul-07 21:00N 37°28' E 002°46'713.5
2018-Jul-07 20:27N 37°30' E 002°55'613.5
2018-Jul-07 20:00N 37°32' E 003°02'913.8
2018-Jul-07 19:22N 37°34' E 003°13'514.0
2018-Jul-07 19:00N 37°35' E 003°19'714.2
2018-Jul-07 18:30N 37°37' E 003°28'714.2
2018-Jul-07 18:00N 37°39' E 003°37'714.0
2018-Jul-07 17:30N 37°41' E 003°45'713.8
2018-Jul-07 17:00N 37°42' E 003°53'713.7
2018-Jul-07 16:30N 37°44' E 004°02'1913.5
2018-Jul-07 15:04N 37°49' E 004°26'113.5
2018-Jul-07 14:59N 37°49' E 004°27'713.5
2018-Jul-07 14:27N 37°51' E 004°36'613.4
2018-Jul-07 14:00N 37°53' E 004°43'713.3
2018-Jul-07 13:30N 37°54' E 004°51'913.3
2018-Jul-07 12:51N 37°56' E 005°02'413.1
2018-Jul-07 12:30N 37°58' E 005°07'  

Dump ship's entire track history